Potter, Nebraska
Current Conditions -  °F | °C
As of 11:55 PM on Thursday 30 Oct 2014 (Local Time) from KIBM Reporting Station
Clear Clear  
Wind Chill: 29°   Ceiling: Unl
Heat Index: 33°   Visibility: 10mi
Dew Point: 30°   Wind: 5mph
Humidity: 87%   Direction: 130°SE
Pressure: 30.41"   Gusts: NA
Location:  41.22°N, 103.32°W
Report Text: KIBM 310555Z AUTO 13004KT 10SM CLR 01/M01 A3041 RMK AO2 T00061013 10103 20000
Loading
Personal Weather Stations






























Interactive Weather Map
Tropical Storm Tracking
New forecast layout! Learn more

10-Day Weather Forecast

Advertisements
Track Severe Weather on mobile